Time;durP1;ratioP1;P1;durP2;ratioP2;P2;SDS_P1;SDS_P2;PMS_P1;PMS_P2;Temp;Humidity;BMP_temperature;BMP_pressure;BME280_temperature;BME280_humidity;BME280_pressure;Samples;Min_cycle;Max_cycle;Signal;HPM_P1;HPM_P2
2021/05/16 00:00:13;;;;;;;;;;;;;;;7.82;100.00;97798.44;5054717;28;19973;-82
2021/05/16 00:02:40;;;;;;;;;;;;;;;7.74;100.00;97830.41;5035218;28;19929;-82
2021/05/16 00:05:07;;;;;;;;;;;;;;;7.83;100.00;97855.59;5052213;28;19925;-82
2021/05/16 00:07:35;;;;;;;;;;;;;;;7.93;100.00;97893.50;5055221;28;19924;-82
2021/05/16 00:10:03;;;;;;;;;;;;;;;7.99;100.00;97925.16;5056024;28;19940;-82
2021/05/16 00:12:31;;;;;;;;;;;;;;;8.07;100.00;97998.88;5056024;28;19978;-82
2021/05/16 00:14:58;;;;;;;;;;;;;;;8.10;100.00;98120.44;5056433;28;19931;-82
2021/05/16 00:17:25;;;;;;;;;;;;;;;8.08;100.00;98223.00;5053846;28;21181;-82
2021/05/16 00:19:54;;;;;;;;;;;;;;;7.98;100.00;98231.56;5054381;28;20033;-81
2021/05/16 00:22:22;;;;;;;;;;;;;;;7.98;100.00;98235.09;5071403;28;19978;-82
2021/05/16 00:24:49;;;;;;;;;;;;;;;7.97;100.00;98233.53;5054691;28;19967;-82
2021/05/16 00:27:16;;;;;;;;;;;;;;;8.02;100.00;98238.63;5054450;28;19928;-81
2021/05/16 00:29:53;;;;;;;;;;;;;;;8.05;100.00;98228.63;5054672;28;20404;-81
2021/05/16 00:32:20;;;;;;;;;;;;;;;7.87;100.00;98230.97;5071238;28;20258;-81
2021/05/16 00:34:51;;;;;;;;;;;;;;;7.90;100.00;98239.25;5055636;28;19924;-82
2021/05/16 00:37:19;;;;;;;;;;;;;;;7.86;100.00;98234.97;5055245;28;19925;-81
2021/05/16 00:39:46;;;;;;;;;;;;;;;7.90;100.00;98246.78;5055272;28;20013;-81
2021/05/16 00:42:14;;;;;;;;;;;;;;;7.99;100.00;98253.38;5055614;28;20023;-82
2021/05/16 00:44:57;;;;;;;;;;;;;;;8.14;100.00;98260.25;5055590;28;19932;-82
2021/05/16 00:47:24;;;;;;;;;;;;;;;8.08;100.00;98256.41;5053007;28;19924;-81
2021/05/16 00:49:52;;;;;;;;;;;;;;;8.04;100.00;98261.22;5054459;28;19924;-82
2021/05/16 00:52:20;;;;;;;;;;;;;;;8.09;100.00;98263.50;5034367;28;20478;-82
2021/05/16 00:54:48;;;;;;;;;;;;;;;8.21;100.00;98267.69;5035261;28;19947;-82
2021/05/16 00:57:16;;;;;;;;;;;;;;;8.17;100.00;98267.75;5054000;28;19925;-82
2021/05/16 00:59:43;;;;;;;;;;;;;;;8.18;100.00;98266.53;5055172;28;19924;-82
2021/05/16 01:02:11;;;;;;;;;;;;;;;8.16;100.00;98268.97;5053864;28;20398;-81
2021/05/16 01:04:38;;;;;;;;;;;;;;;8.14;100.00;98270.59;5037621;28;20019;-82
2021/05/16 01:07:05;;;;;;;;;;;;;;;8.01;100.00;98270.41;5055079;28;20372;-82
2021/05/16 01:09:33;;;;;;;;;;;;;;;7.89;100.00;98265.47;5017521;28;20019;-82
2021/05/16 01:12:03;;;;;;;;;;;;;;;7.86;100.00;98269.09;5051606;28;19955;-82
2021/05/16 01:14:36;;;;;;;;;;;;;;;7.95;100.00;98274.91;5054157;28;19932;-82
2021/05/16 01:17:03;;;;;;;;;;;;;;;8.00;100.00;98274.41;5053759;28;19925;-82
2021/05/16 01:19:31;;;;;;;;;;;;;;;8.02;100.00;98280.34;5053826;28;19925;-82
2021/05/16 01:22:01;;;;;;;;;;;;;;;8.09;100.00;98283.00;5053752;28;19932;-82
2021/05/16 01:24:29;;;;;;;;;;;;;;;8.07;100.00;98288.22;5053596;28;20039;-82
2021/05/16 01:27:02;;;;;;;;;;;;;;;8.24;100.00;98287.09;5053821;28;20392;-81
2021/05/16 01:29:36;;;;;;;;;;;;;;;8.19;100.00;98284.81;5037409;28;19925;-81
2021/05/16 01:32:21;;;;;;;;;;;;;;;8.06;100.00;98283.84;5048303;28;19925;-81
2021/05/16 01:34:48;;;;;;;;;;;;;;;8.18;100.00;98282.44;5051976;28;19925;-81
2021/05/16 01:37:17;;;;;;;;;;;;;;;8.23;100.00;98279.97;5037101;28;20308;-81
2021/05/16 01:39:47;;;;;;;;;;;;;;;8.18;100.00;98288.78;5053300;28;20267;-82
2021/05/16 01:42:16;;;;;;;;;;;;;;;8.11;100.00;98282.56;5037012;28;19932;-83
2021/05/16 01:44:45;;;;;;;;;;;;;;;8.09;100.00;98282.22;5069996;28;20142;-82
2021/05/16 01:47:12;;;;;;;;;;;;;;;8.19;100.00;98273.69;5054687;28;19925;-83
2021/05/16 01:49:47;;;;;;;;;;;;;;;8.13;100.00;98275.38;5053663;28;19932;-82
2021/05/16 01:52:14;;;;;;;;;;;;;;;8.13;100.00;98269.81;5053608;28;19929;-82
2021/05/16 01:54:42;;;;;;;;;;;;;;;7.95;100.00;98260.22;5053365;28;19925;-82
2021/05/16 01:57:09;;;;;;;;;;;;;;;7.86;100.00;98260.00;5033697;28;19932;-82
2021/05/16 01:59:37;;;;;;;;;;;;;;;7.76;100.00;98250.63;5041889;28;19924;-82
2021/05/16 02:02:05;;;;;;;;;;;;;;;7.68;100.00;98253.97;5036755;28;19951;-82
2021/05/16 02:04:34;;;;;;;;;;;;;;;7.60;100.00;98247.75;5053090;28;20015;-82
2021/05/16 02:07:01;;;;;;;;;;;;;;;7.79;100.00;98249.78;5053089;28;19947;-82
2021/05/16 02:09:36;;;;;;;;;;;;;;;7.56;100.00;98243.44;5069779;28;19924;-81
2021/05/16 02:12:03;;;;;;;;;;;;;;;7.38;100.00;98238.16;5054171;28;20011;-82
2021/05/16 02:14:32;;;;;;;;;;;;;;;7.24;100.00;98224.50;5053666;28;19994;-82
2021/05/16 02:17:01;;;;;;;;;;;;;;;7.18;100.00;98226.19;5034614;28;20349;-82
2021/05/16 02:19:29;;;;;;;;;;;;;;;7.12;100.00;98225.09;5054363;28;19925;-82
2021/05/16 02:21:56;;;;;;;;;;;;;;;7.12;100.00;98223.09;5052884;28;19947;-82
2021/05/16 02:24:24;;;;;;;;;;;;;;;7.01;100.00;98221.72;5052826;28;19929;-82
2021/05/16 02:27:17;;;;;;;;;;;;;;;6.98;100.00;98233.66;5051827;28;20001;-81
2021/05/16 02:29:52;;;;;;;;;;;;;;;7.01;100.00;98225.25;5053943;28;20762;-82
2021/05/16 02:32:21;;;;;;;;;;;;;;;7.06;100.00;98232.31;5052885;28;19929;-81
2021/05/16 02:34:51;;;;;;;;;;;;;;;7.06;100.00;98229.53;5052736;28;20281;-82
2021/05/16 02:37:31;;;;;;;;;;;;;;;7.02;100.00;98221.28;5036625;28;20288;-82
2021/05/16 02:39:58;;;;;;;;;;;;;;;6.95;100.00;98231.72;5052889;28;19975;-82
2021/05/16 02:42:26;;;;;;;;;;;;;;;6.87;100.00;98227.47;5052916;28;19987;-81
2021/05/16 02:44:53;;;;;;;;;;;;;;;6.82;100.00;98222.38;5069013;28;19924;-82
2021/05/16 02:47:21;;;;;;;;;;;;;;;6.79;100.00;98217.66;5053912;28;19946;-82
2021/05/16 02:49:49;;;;;;;;;;;;;;;6.71;100.00;98214.19;5053999;28;20313;-82
2021/05/16 02:52:16;;;;;;;;;;;;;;;6.83;100.00;98229.50;5053507;28;19924;-82
2021/05/16 02:54:43;;;;;;;;;;;;;;;6.66;100.00;98217.47;5052484;28;19931;-82
2021/05/16 02:57:10;;;;;;;;;;;;;;;6.60;100.00;98221.09;5053702;28;19932;-82
2021/05/16 02:59:38;;;;;;;;;;;;;;;6.56;100.00;98218.38;5052263;28;19932;-82
2021/05/16 03:02:05;;;;;;;;;;;;;;;6.42;100.00;98206.69;5055003;28;20331;-82
2021/05/16 03:04:33;;;;;;;;;;;;;;;6.38;100.00;98214.25;5056530;28;20411;-82
2021/05/16 03:07:01;;;;;;;;;;;;;;;6.38;100.00;98217.81;5056387;28;20292;-82
2021/05/16 03:09:30;;;;;;;;;;;;;;;6.31;100.00;98217.91;5056302;28;19925;-82
2021/05/16 03:11:57;;;;;;;;;;;;;;;6.34;100.00;98217.09;5057610;28;19955;-82
2021/05/16 03:14:26;;;;;;;;;;;;;;;6.25;100.00;98221.56;5073005;28;20372;-82
2021/05/16 03:16:54;;;;;;;;;;;;;;;6.17;100.00;98211.75;5057076;28;20292;-82
2021/05/16 03:19:21;;;;;;;;;;;;;;;6.18;100.00;98221.66;5041120;28;19932;-82
2021/05/16 03:21:49;;;;;;;;;;;;;;;6.19;100.00;98215.69;5036832;28;19932;-82
2021/05/16 03:24:17;;;;;;;;;;;;;;;6.19;100.00;98220.44;5048307;28;19931;-82
2021/05/16 03:26:45;;;;;;;;;;;;;;;6.05;100.00;98215.06;5077988;28;20405;-82
2021/05/16 03:29:12;;;;;;;;;;;;;;;5.95;100.00;98215.97;5045827;28;19964;-82
2021/05/16 03:31:39;;;;;;;;;;;;;;;5.96;100.00;98217.53;5037534;28;20378;-82
2021/05/16 03:34:07;;;;;;;;;;;;;;;5.95;100.00;98221.53;5062088;28;19925;-82
2021/05/16 03:36:34;;;;;;;;;;;;;;;5.93;100.00;98215.59;5061485;28;19932;-82
2021/05/16 03:39:02;;;;;;;;;;;;;;;5.97;100.00;98224.69;5075899;28;20276;-82
2021/05/16 03:41:29;;;;;;;;;;;;;;;5.85;100.00;98212.09;5075841;28;19925;-82
2021/05/16 03:43:56;;;;;;;;;;;;;;;5.82;100.00;98223.22;5075860;28;20284;-82
2021/05/16 03:46:24;;;;;;;;;;;;;;;5.81;100.00;98210.53;5077002;28;19925;-83
2021/05/16 03:48:52;;;;;;;;;;;;;;;5.81;100.00;98221.63;5075645;28;20368;-82
2021/05/16 03:51:19;;;;;;;;;;;;;;;5.80;100.00;98214.53;5076721;28;19932;-82
2021/05/16 03:53:46;;;;;;;;;;;;;;;5.79;100.00;98218.47;5070120;28;20425;-83
2021/05/16 03:56:13;;;;;;;;;;;;;;;5.76;100.00;98210.97;5050785;28;19932;-83
2021/05/16 03:58:40;;;;;;;;;;;;;;;5.86;100.00;98210.91;5055646;28;19955;-84
2021/05/16 04:01:07;;;;;;;;;;;;;;;5.82;100.00;98206.59;5065220;28;20464;-83
2021/05/16 04:03:34;;;;;;;;;;;;;;;5.80;100.00;98208.97;5059716;28;20073;-83
2021/05/16 04:06:01;;;;;;;;;;;;;;;5.89;100.00;98217.63;5064576;28;19924;-83
2021/05/16 04:08:29;;;;;;;;;;;;;;;5.90;100.00;98216.41;5060629;28;20002;-83
2021/05/16 04:10:56;;;;;;;;;;;;;;;5.89;100.00;98214.84;5056808;28;19925;-83
2021/05/16 04:13:24;;;;;;;;;;;;;;;5.72;100.00;98213.03;5050424;28;20421;-83
2021/05/16 04:15:51;;;;;;;;;;;;;;;5.66;100.00;98204.38;5075362;28;19932;-83
2021/05/16 04:18:18;;;;;;;;;;;;;;;5.56;100.00;98206.03;5076373;28;20284;-83
2021/05/16 04:20:46;;;;;;;;;;;;;;;5.48;100.00;98198.22;5073811;28;20300;-83
2021/05/16 04:23:14;;;;;;;;;;;;;;;5.44;100.00;98197.44;5038607;28;20276;-83
2021/05/16 04:25:41;;;;;;;;;;;;;;;5.47;100.00;98200.19;5071212;28;20027;-83
2021/05/16 04:28:08;;;;;;;;;;;;;;;5.53;100.00;98206.06;5058461;28;19924;-83
2021/05/16 04:30:36;;;;;;;;;;;;;;;5.67;100.00;98216.22;5078106;28;19928;-82
2021/05/16 04:33:03;;;;;;;;;;;;;;;5.55;100.00;98198.94;5068563;28;20677;-82
2021/05/16 04:35:30;;;;;;;;;;;;;;;5.68;100.00;98217.81;5067145;28;19924;-82
2021/05/16 04:37:57;;;;;;;;;;;;;;;5.68;100.00;98206.75;5056744;28;20280;-82
2021/05/16 04:40:25;;;;;;;;;;;;;;;5.63;100.00;98213.50;5064995;28;19973;-82
2021/05/16 04:42:52;;;;;;;;;;;;;;;5.45;100.00;98216.44;5061779;28;20023;-82
2021/05/16 04:45:19;;;;;;;;;;;;;;;5.45;100.00;98205.34;5074640;28;20406;-82
2021/05/16 04:47:46;;;;;;;;;;;;;;;5.48;100.00;98203.75;5060409;28;19925;-82
2021/05/16 04:50:15;;;;;;;;;;;;;;;5.51;100.00;98209.25;5071433;28;19932;-82
2021/05/16 04:52:42;;;;;;;;;;;;;;;5.63;100.00;98210.75;5068419;28;19960;-82
2021/05/16 04:55:11;;;;;;;;;;;;;;;5.60;100.00;98204.03;5074523;28;20016;-82
2021/05/16 04:57:38;;;;;;;;;;;;;;;5.71;100.00;98212.22;5078949;28;19932;-82
2021/05/16 05:00:06;;;;;;;;;;;;;;;5.82;100.00;98229.56;5069333;28;20026;-82
2021/05/16 05:02:34;;;;;;;;;;;;;;;5.78;100.00;98216.91;5064762;28;19979;-82
2021/05/16 05:05:02;;;;;;;;;;;;;;;5.83;100.00;98217.28;5075336;28;20045;-82
2021/05/16 05:07:29;;;;;;;;;;;;;;;6.01;100.00;98230.97;5066050;28;20014;-82
2021/05/16 05:09:56;;;;;;;;;;;;;;;6.03;100.00;98234.88;5055364;28;19986;-82
2021/05/16 05:12:24;;;;;;;;;;;;;;;5.88;100.00;98227.16;5074325;28;20016;-83
2021/05/16 05:14:51;;;;;;;;;;;;;;;5.91;100.00;98226.31;5075253;28;19930;-82
2021/05/16 05:17:18;;;;;;;;;;;;;;;5.63;100.00;98221.03;5055167;28;19932;-82
2021/05/16 05:19:45;;;;;;;;;;;;;;;5.60;100.00;98209.56;5067305;28;20116;-83
2021/05/16 05:22:12;;;;;;;;;;;;;;;5.83;100.00;98230.38;5056852;28;19974;-83
2021/05/16 05:24:39;;;;;;;;;;;;;;;6.17;100.00;98239.47;5074883;28;19978;-82
2021/05/16 05:27:06;;;;;;;;;;;;;;;6.35;100.00;98237.28;5074797;28;20030;-83
2021/05/16 05:29:33;;;;;;;;;;;;;;;6.41;100.00;98246.72;5069634;28;19994;-82
2021/05/16 05:32:00;;;;;;;;;;;;;;;6.51;100.00;98254.13;5031733;28;20014;-82
2021/05/16 05:34:27;;;;;;;;;;;;;;;6.77;100.00;98256.19;5074639;28;19924;-82
2021/05/16 05:36:55;;;;;;;;;;;;;;;7.01;100.00;98261.34;5070994;28;19947;-82
2021/05/16 05:39:23;;;;;;;;;;;;;;;7.35;100.00;98275.13;5059040;28;19925;-83
2021/05/16 05:41:50;;;;;;;;;;;;;;;7.42;100.00;98277.03;5054740;28;20443;-84
2021/05/16 05:44:18;;;;;;;;;;;;;;;7.05;100.00;98262.09;5070445;28;19931;-83
2021/05/16 05:46:45;;;;;;;;;;;;;;;7.03;100.00;98258.16;5054560;28;19948;-83
2021/05/16 05:49:14;;;;;;;;;;;;;;;7.14;100.00;98259.59;5054609;28;19925;-81
2021/05/16 05:51:41;;;;;;;;;;;;;;;7.13;100.00;98257.22;5053361;28;19924;-85
2021/05/16 05:54:08;;;;;;;;;;;;;;;7.05;100.00;98245.44;5036693;28;19925;-85
2021/05/16 05:56:35;;;;;;;;;;;;;;;6.83;100.00;98237.84;5053030;28;19928;-85
2021/05/16 05:59:03;;;;;;;;;;;;;;;6.83;100.00;98238.59;5054449;28;19925;-85
2021/05/16 06:01:30;;;;;;;;;;;;;;;6.78;100.00;98241.09;5053483;28;19939;-86
2021/05/16 06:03:58;;;;;;;;;;;;;;;6.86;100.00;98242.56;5052371;28;21744;-85
2021/05/16 06:06:25;;;;;;;;;;;;;;;7.02;100.00;98239.94;5054433;28;19952;-84
2021/05/16 06:08:53;;;;;;;;;;;;;;;7.15;100.00;98246.47;5054162;28;19924;-85
2021/05/16 06:11:20;;;;;;;;;;;;;;;7.14;100.00;98244.91;5048075;28;20001;-85
2021/05/16 06:13:47;;;;;;;;;;;;;;;7.13;100.00;98235.00;5039057;28;19939;-85
2021/05/16 06:16:15;;;;;;;;;;;;;;;7.64;100.00;98254.00;5050252;28;19931;-85
2021/05/16 06:18:42;;;;;;;;;;;;;;;7.99;100.00;98264.50;5042087;28;19925;-85
2021/05/16 06:21:11;;;;;;;;;;;;;;;8.14;100.00;98276.94;5046126;28;19924;-85
2021/05/16 06:23:50;;;;;;;;;;;;;;;8.69;100.00;98293.75;5036076;28;20005;-85
2021/05/16 06:26:17;;;;;;;;;;;;;;;9.46;100.00;98315.56;5048743;28;19925;-85
2021/05/16 06:28:44;;;;;;;;;;;;;;;10.15;100.00;98340.97;5072684;28;20033;-85
2021/05/16 06:31:20;;;;;;;;;;;;;;;10.96;100.00;98367.47;5073223;28;19928;-85
2021/05/16 06:33:48;;;;;;;;;;;;;;;11.23;100.00;98369.09;5056576;28;20484;-85
2021/05/16 06:36:15;;;;;;;;;;;;;;;11.70;100.00;98390.47;5070315;28;19931;-86
2021/05/16 06:38:42;;;;;;;;;;;;;;;12.21;100.00;98388.41;5062855;28;19924;-85
2021/05/16 06:41:09;;;;;;;;;;;;;;;13.42;100.00;98435.00;5056311;28;20023;-85
2021/05/16 06:43:36;;;;;;;;;;;;;;;14.59;100.00;98462.09;5041534;28;19933;-85
2021/05/16 06:46:04;;;;;;;;;;;;;;;15.87;100.00;98471.69;5033620;28;19932;-85
2021/05/16 06:48:31;;;;;;;;;;;;;;;15.74;100.00;98428.84;5036592;28;19929;-85
2021/05/16 06:50:58;;;;;;;;;;;;;;;16.05;100.00;98387.09;5069290;28;19991;-85
2021/05/16 06:53:26;;;;;;;;;;;;;;;15.28;100.00;98295.06;5056119;28;20023;-85
2021/05/16 06:55:53;;;;;;;;;;;;;;;14.27;100.00;98207.72;5045388;28;19925;-84
2021/05/16 06:58:20;;;;;;;;;;;;;;;15.02;100.00;98161.69;5037805;28;19950;-85
2021/05/16 07:00:47;;;;;;;;;;;;;;;15.93;100.00;98143.00;5053452;28;19974;-84
2021/05/16 07:03:14;;;;;;;;;;;;;;;16.55;100.00;97961.72;5052168;28;19925;-84
2021/05/16 07:05:41;;;;;;;;;;;;;;;16.50;100.00;97847.59;5063585;28;19954;-84
2021/05/16 07:08:09;;;;;;;;;;;;;;;16.43;100.00;97768.28;5065115;28;20979;-84
2021/05/16 07:10:36;;;;;;;;;;;;;;;16.56;100.00;97703.88;5059724;28;19928;-84
2021/05/16 07:13:03;;;;;;;;;;;;;;;15.94;100.00;97620.66;5053116;28;20012;-84
2021/05/16 07:15:31;;;;;;;;;;;;;;;15.92;100.00;97561.22;5075298;28;19924;-84
2021/05/16 07:17:58;;;;;;;;;;;;;;;16.53;100.00;97533.69;5059728;28;19968;-84
2021/05/16 07:20:25;;;;;;;;;;;;;;;16.50;100.00;97477.50;5061880;28;19924;-84
2021/05/16 07:22:53;;;;;;;;;;;;;;;17.47;100.00;97415.75;5065008;28;19925;-87
2021/05/16 07:25:20;;;;;;;;;;;;;;;18.36;100.00;97419.47;5056309;28;19982;-82
2021/05/16 07:27:47;;;;;;;;;;;;;;;18.77;100.00;97387.28;5051838;28;19925;-86
2021/05/16 07:30:15;;;;;;;;;;;;;;;17.23;100.00;97348.44;5053138;28;20311;-87
2021/05/16 07:32:42;;;;;;;;;;;;;;;15.91;100.00;97303.38;5068990;28;20291;-86
2021/05/16 07:35:10;;;;;;;;;;;;;;;16.83;100.00;97300.06;5062711;28;19925;-86
2021/05/16 07:37:37;;;;;;;;;;;;;;;16.60;100.00;97271.00;5053083;28;19929;-87
2021/05/16 07:40:05;;;;;;;;;;;;;;;16.90;100.00;97265.75;5053461;28;19956;-86
2021/05/16 07:42:33;;;;;;;;;;;;;;;17.07;100.00;97235.53;5048635;28;20019;-91
2021/05/16 07:45:09;;;;;;;;;;;;;;;18.30;100.00;97223.63;5018253;28;19925;-92
2021/05/16 07:47:37;;;;;;;;;;;;;;;18.76;100.00;97184.91;5015594;28;20611;-84
2021/05/16 07:50:05;;;;;;;;;;;;;;;18.24;100.00;97155.81;5042134;28;19952;-88
2021/05/16 07:52:32;;;;;;;;;;;;;;;17.69;100.00;97147.53;5049169;28;19924;-89
2021/05/16 07:54:59;;;;;;;;;;;;;;;17.66;100.00;97142.91;5039704;28;20299;-88
2021/05/16 07:57:27;;;;;;;;;;;;;;;17.67;100.00;97147.28;5055215;28;19924;-88
2021/05/16 07:59:54;;;;;;;;;;;;;;;17.11;100.00;97134.47;5052918;28;19925;-88
2021/05/16 08:02:21;;;;;;;;;;;;;;;16.92;100.00;97116.53;5055093;28;19925;-89
2021/05/16 08:04:48;;;;;;;;;;;;;;;16.39;100.00;97119.47;5038486;28;20364;-87
2021/05/16 08:07:16;;;;;;;;;;;;;;;14.79;100.00;97122.09;5022258;28;19925;-87
2021/05/16 08:09:43;;;;;;;;;;;;;;;15.80;100.00;97113.88;5038540;28;19925;-88
2021/05/16 08:12:10;;;;;;;;;;;;;;;16.47;100.00;97112.88;5056064;28;19929;-87
2021/05/16 08:14:37;;;;;;;;;;;;;;;14.40;100.00;97104.13;5056281;28;20019;-87
2021/05/16 08:17:05;;;;;;;;;;;;;;;13.54;100.00;97114.53;5071352;28;20074;-87
2021/05/16 08:19:32;;;;;;;;;;;;;;;14.29;100.00;97134.88;5071383;28;20019;-87
2021/05/16 08:21:59;;;;;;;;;;;;;;;14.85;100.00;97124.97;5055848;28;19932;-87
2021/05/16 08:24:29;;;;;;;;;;;;;;;14.66;100.00;97147.00;5056449;28;20416;-87
2021/05/16 08:26:56;;;;;;;;;;;;;;;14.03;100.00;97139.66;5055714;28;19925;-87
2021/05/16 08:29:23;;;;;;;;;;;;;;;14.32;100.00;97143.09;5072418;28;19924;-87
2021/05/16 08:31:51;;;;;;;;;;;;;;;14.92;100.00;97142.16;5074585;28;19925;-87
2021/05/16 08:34:18;;;;;;;;;;;;;;;15.20;100.00;97137.53;5041405;28;19936;-87
2021/05/16 08:36:47;;;;;;;;;;;;;;;13.61;100.00;97125.34;5067268;28;19932;-87
2021/05/16 08:39:14;;;;;;;;;;;;;;;13.98;100.00;97131.97;5054404;28;19929;-87
2021/05/16 08:41:41;;;;;;;;;;;;;;;13.81;100.00;97133.78;5061195;28;20023;-85
2021/05/16 08:44:08;;;;;;;;;;;;;;;13.47;100.00;97126.16;5075894;28;19964;-88
2021/05/16 08:46:36;;;;;;;;;;;;;;;13.83;100.00;97131.22;5091005;28;19925;-88
2021/05/16 08:49:03;;;;;;;;;;;;;;;14.26;100.00;97149.91;5074368;28;19939;-88
2021/05/16 08:51:31;;;;;;;;;;;;;;;13.83;100.00;97128.44;5057565;28;19948;-88
2021/05/16 08:53:58;;;;;;;;;;;;;;;15.69;100.00;97141.97;5047492;28;19935;-90
2021/05/16 08:56:26;;;;;;;;;;;;;;;16.51;100.00;97121.06;5048740;28;20029;-87
2021/05/16 08:58:53;;;;;;;;;;;;;;;16.40;100.00;97087.97;5050528;28;20033;-90
2021/05/16 09:01:24;;;;;;;;;;;;;;;15.78;100.00;97089.03;5031216;28;19931;-83
2021/05/16 09:03:53;;;;;;;;;;;;;;;15.48;100.00;97085.03;5069567;28;19928;-85
2021/05/16 09:06:31;;;;;;;;;;;;;;;16.14;100.00;97078.94;5052249;28;19932;-85
2021/05/16 09:09:18;;;;;;;;;;;;;;;15.66;100.00;97076.19;5039181;28;20066;-86
2021/05/16 09:11:53;;;;;;;;;;;;;;;15.63;100.00;97073.63;5051063;28;19932;-87
2021/05/16 09:14:39;;;;;;;;;;;;;;;14.25;100.00;97076.09;5051005;28;19933;-90
2021/05/16 09:17:21;;;;;;;;;;;;;;;14.19;100.00;97077.31;5051965;28;21459;-85
2021/05/16 09:19:51;;;;;;;;;;;;;;;14.22;100.00;97085.50;5057290;28;19929;-84
2021/05/16 09:22:37;;;;;;;;;;;;;;;14.42;100.00;97081.88;5037283;28;19936;-86
2021/05/16 09:25:06;;;;;;;;;;;;;;;13.82;100.00;97079.19;5055990;28;19928;-84
2021/05/16 09:27:35;;;;;;;;;;;;;;;14.03;100.00;97078.66;5057530;28;19956;-85
2021/05/16 09:30:23;;;;;;;;;;;;;;;14.22;100.00;97074.25;5065700;28;19928;-89
2021/05/16 09:32:56;;;;;;;;;;;;;;;14.31;100.00;97059.34;5055016;28;19924;-85
2021/05/16 09:35:27;;;;;;;;;;;;;;;13.77;100.00;97074.25;5073682;28;20058;-86
2021/05/16 09:37:55;;;;;;;;;;;;;;;13.82;100.00;97079.19;5090333;28;19931;-86
2021/05/16 09:40:25;;;;;;;;;;;;;;;14.24;100.00;97077.38;5056720;28;20022;-86
2021/05/16 09:43:05;;;;;;;;;;;;;;;14.69;100.00;97072.19;5056244;28;19944;-86
2021/05/16 09:45:51;;;;;;;;;;;;;;;15.37;100.00;97065.28;5065031;28;19960;-82
2021/05/16 09:48:19;;;;;;;;;;;;;;;15.11;100.00;97053.34;5074458;28;19965;-80
2021/05/16 09:51:04;;;;;;;;;;;;;;;16.07;100.00;97059.69;5046966;28;20022;-79
2021/05/16 09:53:31;;;;;;;;;;;;;;;14.96;100.00;97046.31;5025989;28;20542;-79
2021/05/16 09:56:16;;;;;;;;;;;;;;;14.81;100.00;97051.34;5051221;28;19928;-85
2021/05/16 09:58:44;;;;;;;;;;;;;;;14.64;100.00;97054.00;5048840;28;20392;-83
2021/05/16 10:01:12;;;;;;;;;;;;;;;14.31;100.00;97050.91;5049483;28;19925;-81
2021/05/16 10:03:40;;;;;;;;;;;;;;;13.70;100.00;97052.25;5047539;28;19982;-82
2021/05/16 10:06:08;;;;;;;;;;;;;;;13.87;100.00;97053.97;5061876;28;19924;-80
2021/05/16 10:08:36;;;;;;;;;;;;;;;13.51;100.00;97051.00;5063741;28;19963;-80
2021/05/16 10:11:04;;;;;;;;;;;;;;;14.71;100.00;97050.75;5049305;28;19928;-81
2021/05/16 10:13:33;;;;;;;;;;;;;;;15.06;100.00;97048.44;5051497;28;19932;-80
2021/05/16 10:16:01;;;;;;;;;;;;;;;15.33;100.00;97039.41;5051161;28;19987;-80
2021/05/16 10:18:30;;;;;;;;;;;;;;;14.98;100.00;97038.94;5050930;28;19929;-81
2021/05/16 10:20:58;;;;;;;;;;;;;;;15.34;100.00;97046.56;5049396;28;19925;-80
2021/05/16 10:23:29;;;;;;;;;;;;;;;15.58;100.00;97037.78;5036038;28;20117;-81
2021/05/16 10:26:13;;;;;;;;;;;;;;;15.03;100.00;97038.19;5049193;28;20518;-80
2021/05/16 10:29:00;;;;;;;;;;;;;;;14.58;100.00;97039.16;5037657;28;20296;-80
2021/05/16 10:31:46;;;;;;;;;;;;;;;14.16;100.00;97047.41;5067184;28;19931;-80
2021/05/16 10:34:39;;;;;;;;;;;;;;;14.83;100.00;97043.94;5055994;28;19967;-80
2021/05/16 10:37:07;;;;;;;;;;;;;;;15.61;100.00;97037.53;5065946;28;19978;-80
2021/05/16 10:39:43;;;;;;;;;;;;;;;15.21;100.00;97020.91;5066755;28;20046;-80
2021/05/16 10:42:17;;;;;;;;;;;;;;;14.53;100.00;97025.81;5067631;28;19932;-80
2021/05/16 10:44:55;;;;;;;;;;;;;;;15.09;100.00;97016.50;5067265;28;19931;-80
2021/05/16 10:47:44;;;;;;;;;;;;;;;14.69;100.00;97019.56;5067082;28;19925;-80
2021/05/16 10:50:13;;;;;;;;;;;;;;;13.71;100.00;97022.91;5051681;28;19924;-80
2021/05/16 10:52:54;;;;;;;;;;;;;;;14.27;100.00;97025.06;5054180;28;19925;-80
2021/05/16 10:55:25;;;;;;;;;;;;;;;14.87;100.00;97022.00;5052564;28;19930;-81
2021/05/16 10:57:53;;;;;;;;;;;;;;;15.33;100.00;97013.31;5063664;28;20300;-80
2021/05/16 11:00:21;;;;;;;;;;;;;;;15.56;100.00;97010.13;5068797;28;19968;-81
2021/05/16 11:03:08;;;;;;;;;;;;;;;15.62;100.00;97008.09;5065788;28;20067;-80
2021/05/16 11:05:58;;;;;;;;;;;;;;;15.49;100.00;97012.66;5052547;28;19978;-80
2021/05/16 11:08:29;;;;;;;;;;;;;;;15.89;100.00;97009.47;5048738;28;19924;-81
2021/05/16 11:11:01;;;;;;;;;;;;;;;15.68;100.00;97008.91;5068701;28;19924;-80
2021/05/16 11:13:31;;;;;;;;;;;;;;;15.71;100.00;96999.44;5065511;28;20020;-81
2021/05/16 11:16:05;;;;;;;;;;;;;;;15.87;100.00;97001.53;5068718;28;19928;-80
2021/05/16 11:18:34;;;;;;;;;;;;;;;15.87;100.00;96995.88;5065278;28;19931;-81
2021/05/16 11:21:03;;;;;;;;;;;;;;;16.00;100.00;96984.16;5068598;28;19951;-80
2021/05/16 11:23:30;;;;;;;;;;;;;;;16.35;100.00;96986.50;5067363;28;19970;-80
2021/05/16 11:26:02;;;;;;;;;;;;;;;16.53;100.00;96989.63;5072473;28;20019;-80
2021/05/16 11:28:32;;;;;;;;;;;;;;;17.00;100.00;96991.38;5072416;28;19928;-80
2021/05/16 11:31:06;;;;;;;;;;;;;;;17.02;100.00;96988.03;5076394;28;19931;-80
2021/05/16 11:33:37;;;;;;;;;;;;;;;16.93;100.00;96983.44;5076380;28;19950;-80
2021/05/16 11:36:09;;;;;;;;;;;;;;;15.55;100.00;96994.53;5075052;28;19932;-80
2021/05/16 11:38:38;;;;;;;;;;;;;;;14.41;100.00;96990.47;5092277;28;19924;-80
2021/05/16 11:41:06;;;;;;;;;;;;;;;14.32;100.00;96996.25;5075952;28;19924;-80
2021/05/16 11:43:34;;;;;;;;;;;;;;;14.83;100.00;96992.56;5076366;28;19925;-80
2021/05/16 11:46:02;;;;;;;;;;;;;;;15.17;100.00;96978.22;5076454;28;19931;-80
2021/05/16 11:48:33;;;;;;;;;;;;;;;15.26;100.00;96975.19;5074817;28;19932;-80
2021/05/16 11:51:03;;;;;;;;;;;;;;;15.37;100.00;96980.09;5075200;28;19947;-80
2021/05/16 11:53:30;;;;;;;;;;;;;;;15.73;100.00;96980.00;5070075;28;19932;-80
2021/05/16 11:56:08;;;;;;;;;;;;;;;16.02;100.00;96976.72;5068607;28;20021;-80
2021/05/16 11:58:36;;;;;;;;;;;;;;;15.90;100.00;96977.22;5054399;28;20023;-80
2021/05/16 12:01:13;;;;;;;;;;;;;;;15.35;100.00;96977.00;5056427;28;20004;-81
2021/05/16 12:03:50;;;;;;;;;;;;;;;14.88;100.00;96978.53;5057409;28;19925;-78
2021/05/16 12:06:17;;;;;;;;;;;;;;;14.84;100.00;96972.41;5070743;28;20022;-79
2021/05/16 12:08:44;;;;;;;;;;;;;;;14.55;100.00;96981.13;5072378;28;19925;-79
2021/05/16 12:11:15;;;;;;;;;;;;;;;14.37;100.00;96973.06;5072071;28;20017;-79
2021/05/16 12:13:42;;;;;;;;;;;;;;;14.21;100.00;96984.88;5053528;28;20400;-79
2021/05/16 12:16:13;;;;;;;;;;;;;;;14.10;100.00;96985.56;5072832;28;19928;-79
2021/05/16 12:18:41;;;;;;;;;;;;;;;14.74;100.00;96996.34;5070203;28;20358;-79
2021/05/16 12:21:09;;;;;;;;;;;;;;;15.27;100.00;96992.81;5071519;28;19939;-79
2021/05/16 12:23:37;;;;;;;;;;;;;;;14.88;100.00;97006.66;5068555;28;19974;-79
2021/05/16 12:26:05;;;;;;;;;;;;;;;15.32;100.00;97001.28;5072745;28;19970;-79
2021/05/16 12:28:34;;;;;;;;;;;;;;;15.23;100.00;96998.69;5087996;28;20002;-79
2021/05/16 12:31:03;;;;;;;;;;;;;;;15.15;100.00;97002.47;5090890;28;19932;-79
2021/05/16 12:33:30;;;;;;;;;;;;;;;15.19;100.00;97000.94;5074162;28;20456;-79
2021/05/16 12:35:58;;;;;;;;;;;;;;;14.72;100.00;96998.13;5075182;28;19931;-79
2021/05/16 12:38:24;;;;;;;;;;;;;;;15.05;100.00;97006.75;5074213;28;20388;-79
2021/05/16 12:41:08;;;;;;;;;;;;;;;15.44;100.00;97002.13;5074927;28;19924;-79
2021/05/16 12:43:35;;;;;;;;;;;;;;;15.81;100.00;96992.28;5075053;28;19932;-79
2021/05/16 12:46:02;;;;;;;;;;;;;;;16.03;100.00;96986.72;5073417;28;19924;-79
2021/05/16 12:48:31;;;;;;;;;;;;;;;16.35;100.00;96994.94;5073859;28;20014;-80
2021/05/16 12:50:59;;;;;;;;;;;;;;;15.91;100.00;96990.81;5073905;28;19929;-79
2021/05/16 12:53:31;;;;;;;;;;;;;;;16.17;100.00;96985.72;5074809;28;20387;-79